Time;durP1;ratioP1;P1;durP2;ratioP2;P2;SDS_P1;SDS_P2;PMS_P1;PMS_P2;Temp;Humidity;BMP_temperature;BMP_pressure;BME280_temperature;BME280_humidity;BME280_pressure;Samples;Min_cycle;Max_cycle;Signal;HPM_P1;HPM_P2
2021/01/12 00:00:24;;;;;;;41.70;20.02;;;;;;;8.53;89.90;99864.72;6195591;23;20005;-66
2021/01/12 00:02:51;;;;;;;39.75;18.25;;;;;;;8.55;89.83;99861.94;6195657;23;20024;-66
2021/01/12 00:05:17;;;;;;;45.33;21.15;;;;;;;8.50;90.25;99856.25;6195302;23;20005;-67
2021/01/12 00:07:43;;;;;;;49.70;22.42;;;;;;;8.34;90.15;99872.72;6194150;23;20346;-67
2021/01/12 00:10:09;;;;;;;78.95;34.97;;;;;;;8.36;91.02;99893.69;6195359;23;20027;-67
2021/01/12 00:12:34;;;;;;;58.65;26.73;;;;;;;8.37;91.37;99895.34;6195593;23;19997;-66
2021/01/12 00:15:00;;;;;;;60.10;27.90;;;;;;;8.30;91.56;99901.13;6195397;23;20047;-66
2021/01/12 00:17:26;;;;;;;55.28;26.83;;;;;;;8.43;91.39;99886.84;6195868;23;20036;-67
2021/01/12 00:19:51;;;;;;;60.15;26.98;;;;;;;8.43;90.75;99857.81;6194989;23;20271;-66
2021/01/12 00:22:18;;;;;;;58.70;25.75;;;;;;;8.36;90.75;99840.91;6195144;23;19997;-66
2021/01/12 00:24:44;;;;;;;50.28;24.77;;;;;;;8.36;90.63;99847.03;6195304;23;20005;-66
2021/01/12 00:27:13;;;;;;;44.88;22.55;;;;;;;8.40;90.57;99866.84;6195354;23;20010;-67
2021/01/12 00:29:40;;;;;;;56.65;24.95;;;;;;;8.37;90.88;99861.03;6195086;23;20029;-66
2021/01/12 00:32:24;;;;;;;49.10;25.27;;;;;;;8.27;91.08;99861.84;6195405;23;19997;-67
2021/01/12 00:34:51;;;;;;;47.13;22.70;;;;;;;8.35;91.21;99849.81;6195247;23;20012;-67
2021/01/12 00:37:21;;;;;;;45.40;21.00;;;;;;;8.24;91.24;99862.13;6195355;23;20000;-67
2021/01/12 00:39:47;;;;;;;44.03;21.50;;;;;;;8.27;92.23;99850.47;6194651;23;20017;-67
2021/01/12 00:42:13;;;;;;;42.20;21.88;;;;;;;8.32;91.80;99849.09;6193768;23;20194;-66
2021/01/12 00:44:39;;;;;;;40.67;20.42;;;;;;;8.43;91.26;99850.72;6195169;23;20012;-67
2021/01/12 00:47:06;;;;;;;44.88;22.27;;;;;;;8.50;90.91;99845.72;6195232;23;19997;-66
2021/01/12 00:49:32;;;;;;;44.67;21.55;;;;;;;8.50;91.09;99832.50;6194800;23;20023;-67
2021/01/12 00:51:57;;;;;;;41.92;21.30;;;;;;;8.49;91.37;99831.69;6195108;23;20016;-68
2021/01/12 00:54:23;;;;;;;37.85;21.90;;;;;;;8.54;90.89;99820.69;6194774;23;20076;-67
2021/01/12 00:56:50;;;;;;;37.97;19.75;;;;;;;8.66;90.14;99816.03;6195370;23;20190;-66
2021/01/12 00:59:16;;;;;;;39.60;19.13;;;;;;;8.72;89.10;99810.16;6194902;23;20004;-67
2021/01/12 01:01:45;;;;;;;35.20;17.98;;;;;;;8.75;88.75;99805.41;6195556;23;20005;-66
2021/01/12 01:04:16;;;;;;;31.33;16.80;;;;;;;8.67;88.82;99799.22;6194818;23;20056;-66
2021/01/12 01:06:42;;;;;;;37.28;18.02;;;;;;;8.68;89.31;99807.00;6194943;23;20060;-66
2021/01/12 01:09:09;;;;;;;34.85;16.45;;;;;;;8.62;89.15;99804.94;6194670;23;20000;-66
2021/01/12 01:11:40;;;;;;;39.65;17.52;;;;;;;8.62;89.80;99808.41;6195440;23;20290;-66
2021/01/12 01:14:05;;;;;;;35.72;16.85;;;;;;;8.58;89.90;99806.22;6194919;23;19997;-66
2021/01/12 01:16:31;;;;;;;33.90;17.48;;;;;;;8.75;89.21;99809.88;6195489;23;20044;-66
2021/01/12 01:18:57;;;;;;;37.22;17.92;;;;;;;8.68;89.35;99801.72;6194847;23;20000;-67
2021/01/12 01:21:22;;;;;;;35.30;17.60;;;;;;;8.69;89.06;99807.81;6195152;23;20012;-67
2021/01/12 01:23:48;;;;;;;38.42;18.42;;;;;;;8.77;89.02;99811.38;6194931;23;20004;-67
2021/01/12 01:26:18;;;;;;;37.75;18.45;;;;;;;8.78;88.37;99793.72;6195106;23;20012;-67
2021/01/12 01:28:44;;;;;;;40.05;20.23;;;;;;;8.92;87.47;99790.56;6194855;23;20008;-68
2021/01/12 01:31:10;;;;;;;36.92;17.52;;;;;;;8.98;85.82;99786.50;6194958;23;20069;-66
2021/01/12 01:33:35;;;;;;;43.75;18.38;;;;;;;8.77;86.50;99784.97;6194784;23;20040;-67
2021/01/12 01:36:01;;;;;;;46.42;19.83;;;;;;;8.51;87.94;99786.66;6195062;23;20005;-66
2021/01/12 01:38:26;;;;;;;37.22;17.63;;;;;;;8.36;89.30;99790.78;6194774;23;20005;-67
2021/01/12 01:40:59;;;;;;;37.20;18.25;;;;;;;8.30;90.46;99776.31;6194163;23;20075;-66
2021/01/12 01:43:24;;;;;;;43.13;19.77;;;;;;;8.24;90.40;99759.25;6194764;23;19997;-66
2021/01/12 01:45:51;;;;;;;44.67;18.98;;;;;;;8.26;90.05;99751.19;6194954;23;20024;-66
2021/01/12 01:48:17;;;;;;;44.58;19.60;;;;;;;8.04;91.23;99748.94;6194629;23;20198;-67
2021/01/12 01:50:43;;;;;;;50.92;24.00;;;;;;;8.02;92.18;99749.09;6194280;23;20028;-67
2021/01/12 01:53:12;;;;;;;57.53;25.20;;;;;;;8.13;91.99;99754.19;6194617;23;20001;-66
2021/01/12 01:55:39;;;;;;;49.67;23.60;;;;;;;8.20;90.77;99762.34;6194858;23;20202;-66
2021/01/12 01:58:05;;;;;;;51.20;23.15;;;;;;;8.20;91.25;99763.16;6194672;23;20056;-67
2021/01/12 02:00:33;;;;;;;48.85;22.63;;;;;;;8.31;90.12;99760.31;6194282;23;20060;-66
2021/01/12 02:03:05;;;;;;;42.22;21.30;;;;;;;8.22;90.82;99763.84;6194680;23;20007;-66
2021/01/12 02:05:33;;;;;;;52.85;22.67;;;;;;;8.30;90.76;99756.03;6194629;23;20009;-67
2021/01/12 02:08:05;;;;;;;53.92;23.48;;;;;;;8.22;90.66;99760.38;6194503;23;20001;-66
2021/01/12 02:10:35;;;;;;;45.95;22.02;;;;;;;8.19;92.06;99765.94;6194562;23;20056;-68
2021/01/12 02:13:03;;;;;;;45.38;22.13;;;;;;;8.24;92.54;99743.44;6194708;23;20080;-66
2021/01/12 02:15:29;;;;;;;39.72;20.55;;;;;;;8.56;89.60;99736.91;6194643;23;20005;-67
2021/01/12 02:17:56;;;;;;;48.38;21.42;;;;;;;8.52;89.05;99723.19;6194638;23;19997;-66
2021/01/12 02:20:25;;;;;;;53.67;22.23;;;;;;;8.47;88.69;99720.16;6194446;23;20011;-68
2021/01/12 02:23:10;;;;;;;44.13;20.52;;;;;;;8.51;88.93;99731.25;6194665;23;19997;-66
2021/01/12 02:25:37;;;;;;;39.88;19.35;;;;;;;8.14;90.88;99723.34;6194576;23;20016;-67
2021/01/12 02:28:06;;;;;;;52.63;21.65;;;;;;;8.11;91.42;99736.84;6194464;23;20080;-66
2021/01/12 02:30:32;;;;;;;48.83;21.90;;;;;;;7.82;92.69;99744.88;6192913;23;20210;-66
2021/01/12 02:32:58;;;;;;;54.40;21.55;;;;;;;7.88;93.79;99752.19;6194454;23;20011;-66
2021/01/12 02:35:26;;;;;;;43.25;19.45;;;;;;;8.02;93.86;99751.72;6194506;23;20008;-66
2021/01/12 02:37:54;;;;;;;48.15;20.83;;;;;;;8.06;94.01;99752.28;6194837;23;20005;-67
2021/01/12 02:40:20;;;;;;;43.42;20.30;;;;;;;8.13;94.42;99753.34;6193750;23;20064;-66
2021/01/12 02:42:45;;;;;;;38.35;18.23;;;;;;;8.21;94.15;99751.63;6194739;23;19997;-67
2021/01/12 02:45:12;;;;;;;38.95;18.77;;;;;;;8.19;93.52;99729.84;6195911;23;20005;-66
2021/01/12 02:47:38;;;;;;;38.80;17.95;;;;;;;8.39;90.16;99714.81;6196259;23;20004;-66
2021/01/12 02:50:05;;;;;;;38.90;18.02;;;;;;;8.52;88.84;99707.34;6196203;23;20005;-65
2021/01/12 02:52:31;;;;;;;39.05;17.75;;;;;;;8.20;90.30;99696.38;6196179;23;20017;-66
2021/01/12 02:54:56;;;;;;;42.00;18.55;;;;;;;7.99;91.14;99686.94;6196112;23;20011;-65
2021/01/12 02:57:22;;;;;;;42.28;18.90;;;;;;;7.95;91.63;99690.00;6196346;23;20035;-67
2021/01/12 02:59:47;;;;;;;40.65;19.25;;;;;;;7.58;93.62;99695.28;6194510;23;20004;-66
2021/01/12 03:02:13;;;;;;;50.50;20.80;;;;;;;7.43;95.12;99694.09;6196028;23;20083;-65
2021/01/12 03:04:38;;;;;;;46.17;20.67;;;;;;;7.66;95.19;99692.78;6194552;23;20011;-66
2021/01/12 03:07:04;;;;;;;42.25;19.17;;;;;;;7.79;95.08;99693.28;6196245;23;19997;-66
2021/01/12 03:09:29;;;;;;;42.92;18.35;;;;;;;7.77;94.40;99678.56;6195512;23;20001;-66
2021/01/12 03:11:54;;;;;;;42.05;20.05;;;;;;;7.83;94.01;99657.72;6196501;23;19997;-67
2021/01/12 03:14:21;;;;;;;41.90;17.80;;;;;;;7.71;94.51;99663.34;6195807;23;20059;-67
2021/01/12 03:16:46;;;;;;;55.15;23.88;;;;;;;7.94;93.40;99673.34;6196067;23;20337;-66
2021/01/12 03:19:12;;;;;;;47.15;22.45;;;;;;;7.89;93.46;99674.78;6195865;23;20004;-66
2021/01/12 03:21:37;;;;;;;40.15;20.38;;;;;;;7.94;93.63;99689.19;6196520;23;20009;-66
2021/01/12 03:24:04;;;;;;;41.60;19.52;;;;;;;8.01;93.59;99684.16;6196254;23;20004;-66
2021/01/12 03:26:29;;;;;;;39.15;18.55;;;;;;;8.06;93.68;99681.91;6196260;23;20011;-66
2021/01/12 03:28:54;;;;;;;39.28;16.85;;;;;;;8.22;92.67;99663.63;6195961;23;20242;-67
2021/01/12 03:31:20;;;;;;;34.30;17.20;;;;;;;8.29;91.53;99672.59;6196212;23;20024;-68
2021/01/12 03:33:45;;;;;;;31.00;16.15;;;;;;;8.25;92.08;99679.16;6195985;23;20021;-66
2021/01/12 03:36:11;;;;;;;40.95;18.60;;;;;;;8.27;91.69;99685.09;6196165;23;20012;-67
2021/01/12 03:38:36;;;;;;;34.30;17.50;;;;;;;8.28;91.71;99694.66;6195802;23;20028;-67
2021/01/12 03:41:02;;;;;;;36.03;18.10;;;;;;;8.29;91.15;99708.69;6195399;23;20017;-66
2021/01/12 03:43:27;;;;;;;31.65;16.50;;;;;;;8.30;91.09;99718.25;6196141;23;20186;-67
2021/01/12 03:45:53;;;;;;;38.75;19.35;;;;;;;8.27;91.00;99713.28;6196076;23;20005;-66
2021/01/12 03:48:20;;;;;;;42.65;19.10;;;;;;;7.99;91.97;99699.28;6195768;23;20294;-66
2021/01/12 03:50:45;;;;;;;40.25;18.52;;;;;;;7.97;92.02;99688.88;6195848;23;20005;-66
2021/01/12 03:53:14;;;;;;;37.92;18.05;;;;;;;7.85;92.99;99705.03;6195740;23;20240;-67
2021/01/12 03:55:40;;;;;;;35.97;17.75;;;;;;;7.75;93.27;99709.53;6195632;23;20009;-67
2021/01/12 03:58:05;;;;;;;34.72;17.25;;;;;;;7.65;94.00;99722.75;6195760;23;20035;-65
2021/01/12 04:00:30;;;;;;;32.42;16.17;;;;;;;7.65;94.66;99728.00;6195888;23;20220;-66
2021/01/12 04:02:56;;;;;;;30.45;15.85;;;;;;;7.72;94.38;99715.09;6195649;23;20020;-66
2021/01/12 04:05:21;;;;;;;34.78;17.83;;;;;;;7.83;94.65;99705.19;6195508;23;20032;-67
2021/01/12 04:07:47;;;;;;;38.40;19.70;;;;;;;8.03;93.27;99700.66;6195570;23;20004;-67
2021/01/12 04:10:12;;;;;;;36.35;19.30;;;;;;;8.02;91.87;99685.81;6193768;23;20028;-67
2021/01/12 04:12:38;;;;;;;35.22;17.33;;;;;;;8.07;92.23;99688.84;6195629;23;20001;-66
2021/01/12 04:15:05;;;;;;;39.45;18.67;;;;;;;7.95;92.16;99703.19;6195600;23;20076;-66
2021/01/12 04:17:31;;;;;;;45.15;20.08;;;;;;;7.89;93.37;99680.03;6194925;23;20005;-66
2021/01/12 04:19:56;;;;;;;45.03;18.85;;;;;;;7.87;93.45;99669.66;6195317;23;20101;-66
2021/01/12 04:22:22;;;;;;;37.03;17.85;;;;;;;8.04;92.27;99664.56;6195527;23;20061;-67
2021/01/12 04:24:49;;;;;;;32.75;17.08;;;;;;;7.92;92.26;99671.84;6193738;23;20016;-66
2021/01/12 04:27:14;;;;;;;34.97;16.42;;;;;;;8.06;92.28;99658.16;6195374;23;20333;-66
2021/01/12 04:29:40;;;;;;;32.85;14.55;;;;;;;8.22;90.82;99652.22;6195044;23;20068;-67
2021/01/12 04:32:05;;;;;;;319.70;225.20;;;;;;;7.98;92.18;99640.44;6193894;23;20008;-67
2021/01/12 04:34:31;;;;;;;64.78;37.72;;;;;;;7.99;92.10;99633.38;6194954;23;20092;-67
2021/01/12 04:36:57;;;;;;;144.88;116.22;;;;;;;7.96;92.24;99641.56;6195156;23;19997;-68
2021/01/12 04:39:22;;;;;;;65.50;46.60;;;;;;;7.81;92.99;99650.94;6194641;23;20004;-68
2021/01/12 04:41:48;;;;;;;43.67;28.48;;;;;;;7.82;93.26;99631.53;6195295;23;20029;-66
2021/01/12 04:44:13;;;;;;;67.93;47.80;;;;;;;7.78;93.29;99633.63;6195026;23;20286;-67
2021/01/12 04:46:39;;;;;;;82.63;64.30;;;;;;;7.74;93.72;99632.25;6195838;23;20052;-66
2021/01/12 04:49:04;;;;;;;84.97;64.15;;;;;;;7.80;93.59;99646.66;6194995;23;20009;-67
2021/01/12 04:51:30;;;;;;;36.85;18.48;;;;;;;7.94;92.74;99630.34;6194875;23;20013;-67
2021/01/12 04:53:55;;;;;;;48.13;20.73;;;;;;;7.86;93.62;99646.91;6195046;23;20081;-67
2021/01/12 04:56:22;;;;;;;40.20;19.10;;;;;;;7.83;93.99;99641.91;6195500;23;20001;-67
2021/01/12 04:58:52;;;;;;;64.50;22.88;;;;;;;7.74;94.25;99641.97;6195205;23;19997;-66
2021/01/12 05:01:19;;;;;;;33.90;16.58;;;;;;;7.73;94.63;99640.31;6195418;23;20029;-66
2021/01/12 05:03:48;;;;;;;37.60;18.88;;;;;;;7.69;95.00;99626.59;6194933;23;20001;-67
2021/01/12 05:06:15;;;;;;;54.80;26.42;;;;;;;7.90;93.46;99639.53;6193381;23;20001;-67
2021/01/12 05:08:45;;;;;;;39.38;20.77;;;;;;;7.68;93.96;99630.22;6194794;23;20012;-68
2021/01/12 05:11:15;;;;;;;43.20;19.83;;;;;;;7.66;93.86;99625.09;6195389;23;20001;-66
2021/01/12 05:13:45;;;;;;;37.38;19.85;;;;;;;7.53;95.20;99615.84;6193696;23;20240;-67
2021/01/12 05:16:11;;;;;;;108.85;31.17;;;;;;;7.54;95.42;99617.50;6195205;23;20001;-66
2021/01/12 05:18:39;;;;;;;121.40;33.53;;;;;;;7.51;96.45;99615.16;6194933;23;20024;-67
2021/01/12 05:21:10;;;;;;;97.55;30.48;;;;;;;7.56;96.01;99626.94;6194927;23;20255;-66
2021/01/12 05:24:04;;;;;;;74.50;23.80;;;;;;;7.63;95.78;99637.72;6195013;23;20313;-67
2021/01/12 05:26:35;;;;;;;44.95;19.17;;;;;;;7.69;96.39;99637.97;6190962;23;20051;-66
2021/01/12 05:29:02;;;;;;;33.97;17.90;;;;;;;7.73;96.33;99654.31;6194684;23;20005;-66
2021/01/12 05:31:29;;;;;;;29.30;17.05;;;;;;;7.78;95.65;99661.78;6195238;23;20208;-67
2021/01/12 05:33:55;;;;;;;34.42;17.52;;;;;;;7.74;95.25;99674.44;6193284;23;20183;-67
2021/01/12 05:36:21;;;;;;;26.05;14.77;;;;;;;7.61;95.14;99677.41;6195121;23;20008;-67
2021/01/12 05:38:49;;;;;;;27.70;15.77;;;;;;;7.69;95.62;99685.41;6194669;23;20060;-67
2021/01/12 05:41:15;;;;;;;30.52;15.45;;;;;;;7.83;94.92;99680.63;6194265;23;20252;-66
2021/01/12 05:43:46;;;;;;;38.28;18.27;;;;;;;7.82;94.25;99653.44;6194846;23;20004;-68
2021/01/12 05:46:13;;;;;;;34.47;17.45;;;;;;;7.83;93.95;99664.81;6195039;23;20005;-67
2021/01/12 05:48:43;;;;;;;43.58;19.77;;;;;;;7.75;94.70;99664.72;6194726;23;20000;-67
2021/01/12 05:51:11;;;;;;;48.75;25.35;;;;;;;7.71;94.62;99658.06;6194832;23;20035;-66
2021/01/12 05:53:48;;;;;;;71.57;33.97;;;;;;;7.57;94.98;99660.22;6194698;23;20005;-68
2021/01/12 05:56:24;;;;;;;77.93;35.20;;;;;;;7.58;95.78;99655.78;6195096;23;20011;-66
2021/01/12 05:58:54;;;;;;;65.78;32.70;;;;;;;7.54;95.58;99646.50;6194718;23;20170;-68
2021/01/12 06:01:45;;;;;;;70.10;32.65;;;;;;;7.66;95.21;99643.53;6194985;23;20033;-67
2021/01/12 06:04:11;;;;;;;100.97;42.25;;;;;;;7.85;94.07;99641.78;6194326;23;20004;-68
2021/01/12 06:06:39;;;;;;;100.18;39.63;;;;;;;7.77;93.69;99646.94;6195190;23;20013;-66
2021/01/12 06:09:06;;;;;;;100.15;44.28;;;;;;;7.49;94.71;99656.66;6194582;23;20217;-67
2021/01/12 06:11:34;;;;;;;88.28;37.75;;;;;;;7.44;95.56;99656.25;6193291;23;20013;-67
2021/01/12 06:14:15;;;;;;;88.53;41.75;;;;;;;7.48;96.13;99649.72;6194491;23;19997;-67
2021/01/12 06:16:43;;;;;;;136.30;57.25;;;;;;;7.56;96.16;99650.66;6195164;23;20060;-66
2021/01/12 06:19:10;;;;;;;92.57;38.28;;;;;;;7.97;93.43;99646.69;6195956;23;19997;-67
2021/01/12 06:21:50;;;;;;;58.38;27.52;;;;;;;8.04;91.44;99635.56;6196682;23;20009;-66
2021/01/12 06:24:20;;;;;;;54.58;25.23;;;;;;;7.97;91.81;99630.03;6196346;23;20198;-67
2021/01/12 06:26:46;;;;;;;48.17;23.08;;;;;;;7.81;92.74;99630.69;6196580;23;20005;-66
2021/01/12 06:29:11;;;;;;;40.53;18.92;;;;;;;7.50;94.15;99621.41;6196284;23;20313;-67
2021/01/12 06:31:46;;;;;;;63.53;30.02;;;;;;;7.39;95.50;99611.06;6196974;23;20222;-66
2021/01/12 06:34:19;;;;;;;44.53;22.27;;;;;;;7.47;95.45;99603.25;6196716;23;20195;-68
2021/01/12 06:36:51;;;;;;;41.97;18.33;;;;;;;7.41;95.00;99586.25;6196834;23;20399;-67
2021/01/12 06:39:21;;;;;;;36.67;17.45;;;;;;;7.30;96.27;99584.63;6196114;23;20238;-65
2021/01/12 06:41:50;;;;;;;39.60;18.33;;;;;;;7.46;95.40;99578.72;6196458;23;20013;-66
2021/01/12 06:44:26;;;;;;;54.67;20.73;;;;;;;7.32;96.29;99581.84;6196624;23;20008;-67
2021/01/12 06:46:55;;;;;;;43.40;19.65;;;;;;;7.38;96.59;99576.00;6196556;23;20015;-66
2021/01/12 06:49:23;;;;;;;39.90;18.90;;;;;;;7.64;95.84;99571.69;6195808;23;20001;-66
2021/01/12 06:52:01;;;;;;;21.25;9.10;;;;;;;7.32;95.54;99564.22;6196379;23;20305;-67
2021/01/12 06:54:37;;;;;;;16.38;10.00;;;;;;;7.39;94.92;99566.28;6196290;23;20012;-66
2021/01/12 06:57:08;;;;;;;10.43;8.00;;;;;;;7.32;93.59;99561.59;6196430;23;20193;-66
2021/01/12 06:59:34;;;;;;;18.77;12.15;;;;;;;7.22;93.47;99562.59;6196101;23;19996;-67
2021/01/12 07:02:04;;;;;;;6.10;2.50;;;;;;;7.16;92.49;99561.38;6196298;23;20021;-66
2021/01/12 07:04:29;;;;;;;5.20;1.88;;;;;;;7.00;93.99;99558.50;6196224;23;20181;-67
2021/01/12 07:06:57;;;;;;;31.63;7.35;;;;;;;7.10;93.33;99566.38;6196671;23;20004;-67
2021/01/12 07:09:24;;;;;;;28.05;5.85;;;;;;;7.07;92.65;99564.03;6195579;23;20000;-68
2021/01/12 07:11:50;;;;;;;15.63;4.50;;;;;;;7.11;92.85;99568.88;6196244;23;20052;-66
2021/01/12 07:14:24;;;;;;;14.02;4.03;;;;;;;6.88;93.81;99573.66;6195924;23;20287;-66
2021/01/12 07:16:50;;;;;;;18.75;6.30;;;;;;;6.87;93.31;99573.78;6194760;23;20004;-67
2021/01/12 07:19:16;;;;;;;30.30;17.38;;;;;;;6.86;93.34;99580.84;6195848;23;20004;-66
2021/01/12 07:21:42;;;;;;;7.20;3.10;;;;;;;6.56;94.15;99568.72;6196052;23;20060;-67
2021/01/12 07:24:16;;;;;;;3.17;1.90;;;;;;;6.60;94.35;99574.53;6195879;23;20024;-66
2021/01/12 07:26:42;;;;;;;11.70;4.60;;;;;;;6.66;93.79;99595.03;6196007;23;20005;-66
2021/01/12 07:29:10;;;;;;;31.75;10.85;;;;;;;6.67;94.27;99589.63;6195568;23;20001;-67
2021/01/12 07:31:36;;;;;;;29.77;11.43;;;;;;;6.50;94.58;99590.34;6196361;23;20005;-66
2021/01/12 07:34:02;;;;;;;41.88;14.30;;;;;;;6.50;94.60;99587.69;6195847;23;20309;-67
2021/01/12 07:36:27;;;;;;;53.03;35.67;;;;;;;6.53;94.86;99590.06;6196310;23;20060;-67
2021/01/12 07:38:53;;;;;;;11.63;5.30;;;;;;;6.60;94.03;99591.16;6195749;23;20016;-67
2021/01/12 07:41:19;;;;;;;19.55;11.40;;;;;;;6.48;94.56;99589.66;6195382;23;20013;-67
2021/01/12 07:43:45;;;;;;;14.13;5.68;;;;;;;6.47;94.44;99609.03;6195932;23;20000;-67
2021/01/12 07:46:11;;;;;;;14.25;5.20;;;;;;;6.60;94.47;99608.75;6196126;23;20005;-67
2021/01/12 07:48:37;;;;;;;20.15;5.82;;;;;;;6.50;95.35;99600.84;6196015;23;20000;-66
2021/01/12 07:51:03;;;;;;;6.35;2.55;;;;;;;6.47;95.09;99595.88;6195916;23;20109;-67
2021/01/12 07:53:32;;;;;;;11.55;3.33;;;;;;;6.50;94.09;99592.13;6196096;23;20001;-66
2021/01/12 07:55:59;;;;;;;16.45;4.60;;;;;;;6.44;95.07;99587.44;6194222;23;20031;-67
2021/01/12 07:58:25;;;;;;;15.18;4.40;;;;;;;6.43;94.70;99591.03;6196114;23;20035;-66
2021/01/12 08:00:51;;;;;;;16.30;5.05;;;;;;;6.37;94.86;99592.41;6196120;23;20025;-66
2021/01/12 08:03:23;;;;;;;15.20;5.50;;;;;;;6.43;94.96;99577.88;6195492;23;20036;-67
2021/01/12 08:05:58;;;;;;;13.35;5.20;;;;;;;6.49;93.54;99599.19;6195417;23;20009;-66
2021/01/12 08:08:24;;;;;;;;;;;;;;;6.41;94.83;99593.81;6196393;23;20001;-66
2021/01/12 08:10:50;;;;;;;8.48;2.80;;;;;;;6.42;94.53;99605.97;6195722;23;20221;-66
2021/01/12 08:13:15;;;;;;;19.10;5.88;;;;;;;6.33;94.77;99602.38;6195605;23;20004;-66
2021/01/12 08:15:43;;;;;;;15.75;5.35;;;;;;;6.22;94.80;99589.34;6195666;23;20275;-67
2021/01/12 08:18:12;;;;;;;12.27;4.22;;;;;;;6.27;94.81;99581.91;6195648;23;20243;-67
2021/01/12 08:20:41;;;;;;;16.97;4.37;;;;;;;6.25;94.28;99583.84;6195512;23;20051;-65
2021/01/12 08:23:09;;;;;;;7.90;2.30;;;;;;;6.12;94.72;99582.41;6195520;23;20000;-68
2021/01/12 08:25:35;;;;;;;11.88;2.97;;;;;;;6.00;95.63;99577.28;6195744;23;20287;-65
2021/01/12 08:28:01;;;;;;;9.30;1.77;;;;;;;6.07;96.11;99578.41;6195363;23;20001;-65
2021/01/12 08:30:32;;;;;;;3.80;1.00;;;;;;;6.23;95.01;99588.38;6195313;23;20029;-66
2021/01/12 08:33:10;;;;;;;6.28;1.58;;;;;;;6.20;94.43;99572.03;6195368;23;20194;-66
2021/01/12 08:35:39;;;;;;;2.33;0.90;;;;;;;6.25;94.26;99575.94;6195450;23;20052;-66
2021/01/12 08:38:07;;;;;;;8.47;2.63;;;;;;;6.16;95.33;99549.63;6195161;23;20047;-66
2021/01/12 08:40:34;;;;;;;4.83;2.10;;;;;;;6.11;94.81;99552.66;6194702;23;20238;-66
2021/01/12 08:43:01;;;;;;;3.17;1.73;;;;;;;6.33;94.38;99562.94;6194864;23;20324;-67
2021/01/12 08:45:32;;;;;;;31.87;12.97;;;;;;;6.35;94.35;99568.06;6195293;23;20016;-68
2021/01/12 08:48:09;;;;;;;15.88;6.47;;;;;;;6.35;92.77;99547.84;6195171;23;20309;-66
2021/01/12 08:50:34;;;;;;;9.90;4.53;;;;;;;6.42;92.85;99540.22;6195247;23;20278;-66
2021/01/12 08:53:00;;;;;;;6.68;3.55;;;;;;;6.45;93.06;99534.69;6195202;23;20008;-66
2021/01/12 08:55:26;;;;;;;12.05;6.05;;;;;;;6.48;92.41;99513.38;6195267;23;20009;-66
2021/01/12 08:58:05;;;;;;;25.27;8.40;;;;;;;6.45;91.85;99495.25;6195241;23;20290;-67
2021/01/12 09:00:34;;;;;;;10.48;4.53;;;;;;;6.49;91.62;99477.38;6195149;23;20037;-67
2021/01/12 09:03:01;;;;;;;12.52;4.22;;;;;;;6.49;91.27;99443.19;6195051;23;20012;-65
2021/01/12 09:05:29;;;;;;;4.63;2.30;;;;;;;6.39;91.37;99448.47;6194752;23;20009;-67
2021/01/12 09:08:16;;;;;;;24.48;6.60;;;;;;;6.62;91.77;99470.00;6194822;23;20008;-66
2021/01/12 09:10:43;;;;;;;18.25;5.35;;;;;;;6.49;92.16;99470.31;6195209;23;20283;-68
2021/01/12 09:13:28;;;;;;;19.45;6.97;;;;;;;6.60;92.00;99464.03;5080230;28;20564;-66
2021/01/12 09:15:54;;;;;;;21.40;8.70;;;;;;;6.79;92.00;99458.72;5080255;28;20028;-67
2021/01/12 09:18:23;;;;;;;40.30;17.40;;;;;;;6.88;91.24;99443.84;5080125;28;20333;-66
2021/01/12 09:20:56;;;;;;;22.30;8.38;;;;;;;6.90;89.35;99434.84;5079662;28;20040;-66
2021/01/12 09:23:23;;;;;;;11.00;4.15;;;;;;;7.17;88.71;99439.25;5080090;28;20024;-66
2021/01/12 09:25:53;;;;;;;8.27;2.90;;;;;;;7.14;88.87;99444.81;5079709;28;20270;-65
2021/01/12 09:28:23;;;;;;;5.97;2.95;;;;;;;7.11;89.29;99454.81;5080003;28;20033;-66
2021/01/12 09:30:51;;;;;;;5.45;2.55;;;;;;;7.00;89.58;99450.59;5079827;28;20029;-67
2021/01/12 09:33:24;;;;;;;2.42;1.40;;;;;;;7.06;88.07;99428.94;5079730;28;20354;-67
2021/01/12 09:36:10;;;;;;;2.58;1.95;;;;;;;7.01;87.93;99410.94;5079637;28;20045;-67
2021/01/12 09:38:46;;;;;;;2.38;1.30;;;;;;;6.98;89.32;99411.25;5079604;28;20060;-68
2021/01/12 09:41:13;;;;;;;8.70;4.32;;;;;;;6.81;89.21;99429.63;5079599;28;20068;-67
2021/01/12 09:43:39;;;;;;;10.57;5.10;;;;;;;6.67;89.33;99434.38;5079701;28;20037;-67
2021/01/12 09:46:06;;;;;;;12.57;5.40;;;;;;;6.69;90.27;99418.44;5079441;28;20140;-66
2021/01/12 09:48:31;;;;;;;8.50;4.57;;;;;;;6.85;90.14;99437.06;5079566;28;20215;-68
2021/01/12 09:50:57;;;;;;;16.52;7.43;;;;;;;6.84;91.43;99445.13;5079117;28;20058;-66
2021/01/12 09:53:22;;;;;;;23.35;9.75;;;;;;;6.84;92.54;99445.94;5079787;28;20065;-66
2021/01/12 09:55:48;;;;;;;15.32;7.90;;;;;;;6.88;93.06;99434.16;5079075;28;20028;-66
2021/01/12 09:58:13;;;;;;;16.10;7.88;;;;;;;7.11;92.47;99429.31;5079351;28;20063;-67
2021/01/12 10:00:39;;;;;;;27.08;11.27;;;;;;;7.17;92.48;99422.63;5079140;28;20036;-68
2021/01/12 10:03:05;;;;;;;28.35;12.25;;;;;;;7.23;92.18;99401.81;5079692;28;20082;-66
2021/01/12 10:05:30;;;;;;;17.15;8.40;;;;;;;7.26;91.34;99380.44;5079048;28;20047;-67
2021/01/12 10:07:56;;;;;;;15.35;8.73;;;;;;;7.47;90.35;99364.38;5079475;28;20029;-66
2021/01/12 10:10:21;;;;;;;13.75;7.00;;;;;;;7.56;90.36;99362.63;5079115;28;20041;-66
2021/01/12 10:12:47;;;;;;;11.75;6.60;;;;;;;7.53;89.63;99355.84;5078853;28;20233;-65
2021/01/12 10:15:13;;;;;;;11.70;4.78;;;;;;;7.33;90.15;99349.09;5078771;28;20035;-67
2021/01/12 10:17:38;;;;;;;11.57;5.63;;;;;;;7.18;90.38;99343.50;5079339;28;20036;-66
2021/01/12 10:20:05;;;;;;;12.15;6.05;;;;;;;6.97;nan;99335.06;5078661;28;20382;-67
2021/01/12 10:22:31;;;;;;;13.18;6.07;;;;;;;7.27;90.86;99321.53;5077840;28;20059;-66
2021/01/12 10:24:59;;;;;;;9.63;4.78;;;;;;;7.29;90.85;99297.69;5065110;28;20338;-67
2021/01/12 10:27:31;;;;;;;13.65;6.70;;;;;;;7.40;90.01;99265.84;5065983;28;20323;-67
2021/01/12 10:29:57;;;;;;;13.55;7.05;;;;;;;7.61;86.85;99250.53;5065614;28;20147;-67
2021/01/12 10:32:23;;;;;;;10.48;5.28;;;;;;;7.81;85.52;99235.31;5065610;28;20040;-66
2021/01/12 10:34:48;;;;;;;5.80;2.88;;;;;;;7.51;86.12;99210.28;5065239;28;20100;-67
2021/01/12 10:37:14;;;;;;;7.53;3.70;;;;;;;6.97;88.57;99203.44;5065654;28;20198;-67
2021/01/12 10:39:40;;;;;;;10.15;4.78;;;;;;;6.72;90.76;99191.88;5065023;28;20036;-68
2021/01/12 10:42:06;;;;;;;25.42;10.55;;;;;;;6.50;92.83;99208.94;5065596;28;20032;-67
2021/01/12 10:44:32;;;;;;;20.90;8.10;;;;;;;6.54;92.64;99246.28;5065290;28;20052;-66
2021/01/12 10:46:58;;;;;;;16.92;9.15;;;;;;;6.52;94.34;99274.56;5065464;28;20199;-67
2021/01/12 10:49:23;;;;;;;31.23;15.85;;;;;;;6.58;95.02;99282.69;5064966;28;20064;-67
2021/01/12 10:52:05;;;;;;;47.60;21.80;;;;;;;6.55;94.90;99263.72;5065237;28;20037;-67
2021/01/12 10:54:30;;;;;;;37.53;20.40;;;;;;;6.45;94.41;99255.91;5064801;28;20099;-67
2021/01/12 10:56:56;;;;;;;51.75;30.17;;;;;;;6.25;94.45;99280.66;5065219;28;20303;-67
2021/01/12 10:59:23;;;;;;;80.97;48.70;;;;;;;6.62;92.37;99278.78;5065109;28;20375;-66
2021/01/12 11:01:53;;;;;;;49.42;29.48;;;;;;;6.23;92.40;99280.75;5063818;28;20037;-67
2021/01/12 11:04:19;;;;;;;58.35;28.38;;;;;;;6.31;92.73;99303.72;5064655;28;20207;-67
2021/01/12 11:06:45;;;;;;;51.83;25.83;;;;;;;6.34;91.86;99272.72;5064826;28;20033;-67
2021/01/12 11:09:10;;;;;;;33.13;17.27;;;;;;;6.03;93.09;99281.81;5064480;28;20037;-67
2021/01/12 11:11:36;;;;;;;21.17;12.83;;;;;;;6.01;92.89;99281.97;5064613;28;20044;-66
2021/01/12 11:14:06;;;;;;;20.35;11.23;;;;;;;5.95;91.66;99260.69;5064631;28;20100;-67
2021/01/12 11:16:39;;;;;;;24.30;12.77;;;;;;;6.02;92.15;99257.34;5064634;28;20040;-66
2021/01/12 11:19:06;;;;;;;25.13;12.20;;;;;;;5.99;91.11;99212.94;5064418;28;20072;-65
2021/01/12 11:21:31;;;;;;;22.23;10.77;;;;;;;5.63;92.00;99172.56;5064547;28;20301;-66
2021/01/12 11:23:58;;;;;;;18.77;8.90;;;;;;;5.96;92.68;99218.50;5064484;28;20092;-66
2021/01/12 11:26:33;;;;;;;18.23;10.02;;;;;;;5.95;92.19;99211.59;5064630;28;20037;-67
2021/01/12 11:28:58;;;;;;;17.20;9.33;;;;;;;5.89;92.59;99214.78;5064302;28;20080;-66
2021/01/12 11:31:26;;;;;;;24.88;11.70;;;;;;;5.87;92.64;99211.44;5064174;28;20045;-67